Time;durP1;ratioP1;P1;durP2;ratioP2;P2;SDS_P1;SDS_P2;PMS_P1;PMS_P2;Temp;Humidity;BMP_temperature;BMP_pressure;BME280_temperature;BME280_humidity;BME280_pressure;Samples;Min_cycle;Max_cycle;Signal;HPM_P1;HPM_P2
2022/01/04 00:00:41;;;;;;;22.23;4.55;;;8.00;99.90;;;;;;5045621;28;20036;-81
2022/01/04 00:03:06;;;;;;;25.88;5.18;;;8.20;99.90;;;;;;5062164;28;20500;-80
2022/01/04 00:05:32;;;;;;;20.08;5.75;;;8.00;99.90;;;;;;5040155;28;20066;-81
2022/01/04 00:07:59;;;;;;;24.35;5.72;;;7.90;99.90;;;;;;5023100;28;20037;-81
2022/01/04 00:10:28;;;;;;;30.20;5.20;;;7.80;99.90;;;;;;5041809;28;20040;-81
2022/01/04 00:15:42;;;;;;;24.13;5.32;;;7.90;99.90;;;;;;5064977;28;20044;-81
2022/01/04 00:18:07;;;;;;;21.38;4.75;;;7.90;99.90;;;;;;5027699;28;20397;-81
2022/01/04 00:20:33;;;;;;;21.35;4.53;;;7.80;99.90;;;;;;5048557;28;20123;-81
2022/01/04 00:22:59;;;;;;;22.85;4.95;;;8.00;99.90;;;;;;5049433;28;20066;-81
2022/01/04 00:25:24;;;;;;;24.60;5.13;;;7.80;99.90;;;;;;5045369;28;20036;-81
2022/01/04 00:27:50;;;;;;;20.67;4.80;;;7.70;99.90;;;;;;5032313;28;20036;-81
2022/01/04 00:30:16;;;;;;;23.33;5.63;;;7.70;99.90;;;;;;5016808;28;20036;-81
2022/01/04 00:32:42;;;;;;;23.27;5.22;;;7.90;99.90;;;;;;5059586;28;20271;-80
2022/01/04 00:35:08;;;;;;;17.85;4.82;;;7.70;99.90;;;;;;5052575;28;20043;-80
2022/01/04 00:37:34;;;;;;;21.83;5.20;;;7.80;99.90;;;;;;5066040;28;20475;-80
2022/01/04 00:39:59;;;;;;;23.25;5.50;;;7.70;99.90;;;;;;5035929;28;20051;-81
2022/01/04 00:42:25;;;;;;;26.88;5.93;;;7.70;99.90;;;;;;5064721;28;20166;-81
2022/01/04 00:44:51;;;;;;;23.90;6.68;;;7.80;99.90;;;;;;5052745;28;20046;-80
2022/01/04 00:47:19;;;;;;;31.45;6.38;;;7.70;99.90;;;;;;5059931;28;20043;-81
2022/01/04 00:49:46;;;;;;;24.92;6.43;;;7.80;99.90;;;;;;5011996;28;20056;-80
2022/01/04 00:52:16;;;;;;;20.60;6.03;;;8.30;99.90;;;;;;5024997;28;20490;-81
2022/01/04 00:54:42;;;;;;;21.58;5.68;;;7.70;99.90;;;;;;5019587;28;20076;-81
2022/01/04 00:57:08;;;;;;;27.83;6.03;;;7.70;99.90;;;;;;5040335;28;20177;-81
2022/01/04 00:59:33;;;;;;;22.60;6.55;;;7.60;99.90;;;;;;5046981;28;20047;-81
2022/01/04 01:01:59;;;;;;;26.05;6.15;;;7.70;99.90;;;;;;5031217;28;20032;-80
2022/01/04 01:04:25;;;;;;;21.53;6.73;;;7.80;99.90;;;;;;5046383;28;20126;-81
2022/01/04 01:06:51;;;;;;;32.53;6.65;;;8.80;99.90;;;;;;5059065;28;20291;-81
2022/01/04 01:09:16;;;;;;;28.27;6.80;;;7.80;99.90;;;;;;5040741;28;20037;-81
2022/01/04 01:11:42;;;;;;;25.63;7.05;;;7.70;99.90;;;;;;5045655;28;20054;-80
2022/01/04 01:14:08;;;;;;;28.58;7.35;;;7.70;99.90;;;;;;5020812;28;20041;-81
2022/01/04 01:16:34;;;;;;;23.75;6.55;;;7.70;99.90;;;;;;5056597;28;20106;-80
2022/01/04 01:18:59;;;;;;;23.25;6.38;;;7.80;99.90;;;;;;5029235;28;20103;-81
2022/01/04 01:21:25;;;;;;;25.17;6.85;;;7.80;99.90;;;;;;5028249;28;20071;-81
2022/01/04 01:23:51;;;;;;;33.97;6.85;;;7.90;99.90;;;;;;5062008;28;20052;-81
2022/01/04 01:26:17;;;;;;;29.88;6.47;;;7.80;99.90;;;;;;5062049;28;20043;-81
2022/01/04 01:28:43;;;;;;;26.88;6.97;;;8.00;99.90;;;;;;5025206;28;20033;-80
2022/01/04 01:31:10;;;;;;;25.27;7.28;;;7.90;99.90;;;;;;5045032;28;20037;-81
2022/01/04 01:33:35;;;;;;;27.88;7.38;;;7.90;99.90;;;;;;5040726;28;20044;-81
2022/01/04 01:36:01;;;;;;;33.08;7.85;;;7.90;99.90;;;;;;5056325;28;20861;-81
2022/01/04 01:38:27;;;;;;;33.22;7.70;;;7.90;99.90;;;;;;5044801;28;20035;-81
2022/01/04 01:40:53;;;;;;;35.47;7.88;;;8.00;99.90;;;;;;5040525;28;20410;-80
2022/01/04 01:43:20;;;;;;;23.75;7.60;;;8.00;99.90;;;;;;5064205;28;20469;-81
2022/01/04 01:45:46;;;;;;;;;;;8.00;99.90;;;;;;5044874;28;20041;-81
2022/01/04 01:48:12;;;;;;;23.80;7.30;;;8.00;99.90;;;;;;5039185;28;19917;-80
2022/01/04 01:50:38;;;;;;;26.65;7.82;;;8.00;99.90;;;;;;5040703;28;20038;-81
2022/01/04 01:53:04;;;;;;;24.48;7.35;;;8.00;99.90;;;;;;5043286;28;20116;-81
2022/01/04 01:55:30;;;;;;;28.17;6.85;;;8.00;99.90;;;;;;5034017;28;20555;-81
2022/01/04 01:57:57;;;;;;;30.85;7.28;;;8.10;99.90;;;;;;5046240;28;20123;-81
2022/01/04 02:00:24;;;;;;;;;;;8.10;99.90;;;;;;5045965;28;20115;-81
2022/01/04 02:02:50;;;;;;;;;;;8.10;99.90;;;;;;5046593;28;20332;-81
2022/01/04 02:05:16;;;;;;;29.85;6.57;;;8.10;99.90;;;;;;5048153;28;19935;-81
2022/01/04 02:07:43;;;;;;;24.52;6.65;;;8.10;99.90;;;;;;5060407;28;20126;-81
2022/01/04 02:10:10;;;;;;;24.60;6.15;;;8.00;99.90;;;;;;5060124;28;20040;-81
2022/01/04 02:12:38;;;;;;;22.70;6.55;;;8.00;99.90;;;;;;5007198;28;20405;-81
2022/01/04 02:15:07;;;;;;;27.33;6.18;;;8.00;99.90;;;;;;5036579;28;20572;-80
2022/01/04 02:17:33;;;;;;;23.42;6.93;;;7.90;99.90;;;;;;5050196;28;20105;-81
2022/01/04 02:20:03;;;;;;;27.80;6.57;;;7.90;99.90;;;;;;5048100;28;20036;-81
2022/01/04 02:22:30;;;;;;;21.70;5.68;;;7.90;99.90;;;;;;5064513;28;20096;-81
2022/01/04 02:24:56;;;;;;;30.23;6.68;;;8.10;99.90;;;;;;5048604;28;20044;-81
2022/01/04 02:27:21;;;;;;;23.58;6.10;;;7.90;99.90;;;;;;5067623;28;20036;-81
2022/01/04 02:29:48;;;;;;;22.48;5.45;;;7.90;99.90;;;;;;5031810;28;20032;-81
2022/01/04 02:32:14;;;;;;;22.80;5.15;;;8.00;99.90;;;;;;5048386;28;20096;-81
2022/01/04 02:34:45;;;;;;;27.88;6.15;;;7.90;99.90;;;;;;5040440;28;20041;-81
2022/01/04 02:37:11;;;;;;;23.67;5.93;;;7.90;99.90;;;;;;5040900;28;20037;-81
2022/01/04 02:39:38;;;;;;;26.87;5.93;;;8.00;99.90;;;;;;5024192;28;20039;-80
2022/01/04 02:42:05;;;;;;;30.95;6.60;;;8.00;99.90;;;;;;5045492;28;20769;-79
2022/01/04 02:44:32;;;;;;;21.58;5.57;;;8.00;99.90;;;;;;5062799;28;20047;-80
2022/01/04 02:46:58;;;;;;;27.58;6.60;;;8.00;99.90;;;;;;5059838;28;20039;-79
2022/01/04 02:49:24;;;;;;;26.20;7.07;;;8.00;99.90;;;;;;5029217;28;20080;-79
2022/01/04 02:51:51;;;;;;;21.63;6.65;;;8.10;99.90;;;;;;5050429;28;20119;-79
2022/01/04 02:54:16;;;;;;;25.48;6.60;;;8.20;99.90;;;;;;5048776;28;20078;-79
2022/01/04 02:56:42;;;;;;;26.38;6.10;;;8.10;99.90;;;;;;5048978;28;20035;-79
2022/01/04 02:59:08;;;;;;;18.45;5.15;;;8.10;99.90;;;;;;5057955;28;20116;-80
2022/01/04 03:01:33;;;;;;;26.70;6.63;;;8.20;99.90;;;;;;5046058;28;20537;-79
2022/01/04 03:03:59;;;;;;;22.13;6.40;;;8.30;99.90;;;;;;5032439;28;20322;-79
2022/01/04 03:06:25;;;;;;;32.53;6.68;;;8.20;99.90;;;;;;5032993;28;20509;-79
2022/01/04 03:08:50;;;;;;;24.45;6.22;;;8.10;99.90;;;;;;5031097;28;20043;-79
2022/01/04 03:11:17;;;;;;;21.35;7.00;;;8.20;99.90;;;;;;5046375;28;20387;-80
2022/01/04 03:13:42;;;;;;;30.42;7.05;;;8.20;99.90;;;;;;5040986;28;20229;-79
2022/01/04 03:16:08;;;;;;;23.75;6.80;;;8.30;99.90;;;;;;5052395;28;20045;-79
2022/01/04 03:18:36;;;;;;;25.17;6.85;;;8.30;99.90;;;;;;5050088;28;20035;-79
2022/01/04 03:21:02;;;;;;;26.30;6.90;;;9.10;99.90;;;;;;5047368;28;20037;-79
2022/01/04 03:23:27;;;;;;;26.40;7.60;;;8.20;99.90;;;;;;5053138;28;20119;-79
2022/01/04 03:25:53;;;;;;;28.67;6.60;;;8.30;99.90;;;;;;5031665;28;20295;-80
2022/01/04 03:28:20;;;;;;;28.13;7.17;;;8.30;99.90;;;;;;5049481;28;20408;-80
2022/01/04 03:30:46;;;;;;;26.55;6.25;;;8.20;99.90;;;;;;5048999;28;20825;-80
2022/01/04 03:33:12;;;;;;;22.55;5.93;;;8.20;99.90;;;;;;5059248;28;20119;-80
2022/01/04 03:35:38;;;;;;;24.30;6.18;;;8.30;99.90;;;;;;5068278;28;20054;-80
2022/01/04 03:38:03;;;;;;;27.13;7.78;;;8.30;99.90;;;;;;5029319;28;20039;-80
2022/01/04 03:40:29;;;;;;;29.73;6.82;;;8.30;99.90;;;;;;5052574;28;20044;-80
2022/01/04 03:42:55;;;;;;;30.15;7.35;;;8.20;99.90;;;;;;5046577;28;20040;-80
2022/01/04 03:45:21;;;;;;;30.60;6.00;;;8.20;99.90;;;;;;5064226;28;20040;-80
2022/01/04 03:47:47;;;;;;;23.88;7.18;;;8.20;99.90;;;;;;5062077;28;20759;-80
2022/01/04 03:50:13;;;;;;;23.20;7.00;;;8.30;99.90;;;;;;5029564;28;20055;-80
2022/01/04 03:52:38;;;;;;;23.70;7.25;;;8.40;99.90;;;;;;5046904;28;20036;-80
2022/01/04 03:55:06;;;;;;;27.90;6.57;;;8.30;99.90;;;;;;5065508;28;20517;-80
2022/01/04 03:57:32;;;;;;;29.98;6.53;;;8.20;99.90;;;;;;5040416;28;20040;-80
2022/01/04 03:59:58;;;;;;;28.52;7.40;;;8.20;99.90;;;;;;5033766;28;20047;-80
2022/01/04 04:02:24;;;;;;;32.10;7.53;;;8.20;99.90;;;;;;5010741;28;20032;-80
2022/01/04 04:04:50;;;;;;;28.00;6.30;;;8.30;99.90;;;;;;5044465;28;20040;-80
2022/01/04 04:07:15;;;;;;;29.30;7.37;;;8.30;99.90;;;;;;5034724;28;20028;-80
2022/01/04 04:09:41;;;;;;;26.23;7.22;;;8.30;99.90;;;;;;5029251;28;20278;-80
2022/01/04 04:12:08;;;;;;;26.00;7.05;;;8.20;99.90;;;;;;5060062;28;20037;-80
2022/01/04 04:14:33;;;;;;;29.17;7.22;;;8.20;99.90;;;;;;5029448;28;20043;-80
2022/01/04 04:16:59;;;;;;;21.75;6.75;;;8.20;99.90;;;;;;5029300;28;20456;-80
2022/01/04 04:19:25;;;;;;;31.05;7.43;;;8.50;99.90;;;;;;5050312;28;20033;-80
2022/01/04 04:21:51;;;;;;;42.13;7.80;;;8.20;99.90;;;;;;5015203;28;20031;-80
2022/01/04 04:24:17;;;;;;;20.60;6.38;;;8.20;99.90;;;;;;5027615;28;20043;-80
2022/01/04 04:26:43;;;;;;;16.25;6.60;;;8.60;99.90;;;;;;5048479;28;20040;-80
2022/01/04 04:29:09;;;;;;;;;;;8.20;99.90;;;;;;5024484;28;20083;-80
2022/01/04 04:31:35;;;;;;;25.73;7.38;;;8.30;99.90;;;;;;5057216;28;19916;-80
2022/01/04 04:34:01;;;;;;;22.95;7.70;;;8.10;99.90;;;;;;5031003;28;20040;-80
2022/01/04 04:36:27;;;;;;;31.77;8.18;;;8.10;99.90;;;;;;5025417;28;20414;-80
2022/01/04 04:38:53;;;;;;;30.60;7.97;;;8.10;99.90;;;;;;5067633;28;20063;-80
2022/01/04 04:41:19;;;;;;;27.08;7.82;;;8.10;99.90;;;;;;5045146;28;20119;-80
2022/01/04 04:43:45;;;;;;;23.90;8.20;;;8.00;99.90;;;;;;5050884;28;20098;-80
2022/01/04 04:46:11;;;;;;;;;;;8.10;99.90;;;;;;5046508;28;20040;-80
2022/01/04 04:48:37;;;;;;;24.90;8.80;;;8.10;99.90;;;;;;5050340;28;19984;-79
2022/01/04 04:51:03;;;;;;;26.92;9.15;;;8.10;99.90;;;;;;5047323;28;20035;-80
2022/01/04 04:53:28;;;;;;;33.50;9.50;;;8.10;99.90;;;;;;5045264;28;20033;-80
2022/01/04 04:55:54;;;;;;;37.65;9.43;;;8.10;99.90;;;;;;5050311;28;20085;-80
2022/01/04 04:58:20;;;;;;;37.40;9.98;;;8.20;99.90;;;;;;5032932;28;20571;-80
2022/01/04 05:00:45;;;;;;;33.53;9.77;;;8.10;99.90;;;;;;5005410;28;20052;-80
2022/01/04 05:03:11;;;;;;;28.13;9.45;;;8.20;99.90;;;;;;5033997;28;20275;-79
2022/01/04 05:05:37;;;;;;;28.05;9.80;;;8.10;99.90;;;;;;5045297;28;20486;-80
2022/01/04 05:08:03;;;;;;;34.05;10.63;;;8.20;99.90;;;;;;5065350;28;20046;-79
2022/01/04 05:10:28;;;;;;;31.05;10.30;;;8.10;99.90;;;;;;5044750;28;20049;-79
2022/01/04 05:12:54;;;;;;;36.10;10.10;;;8.10;99.90;;;;;;5012535;28;20452;-80
2022/01/04 05:15:20;;;;;;;34.28;10.50;;;8.10;99.90;;;;;;5026422;28;20453;-79
2022/01/04 05:17:46;;;;;;;39.75;10.70;;;8.10;99.90;;;;;;5048507;28;20043;-79
2022/01/04 05:20:11;;;;;;;35.13;10.75;;;8.10;99.90;;;;;;5059724;28;20051;-79
2022/01/04 05:22:37;;;;;;;29.30;9.05;;;8.10;99.90;;;;;;5049786;28;20035;-80
2022/01/04 05:25:03;;;;;;;33.47;10.98;;;8.30;99.90;;;;;;5032549;28;20369;-79
2022/01/04 05:27:29;;;;;;;31.75;9.35;;;8.00;99.90;;;;;;5026513;28;20103;-79
2022/01/04 05:29:55;;;;;;;22.83;9.20;;;8.00;99.90;;;;;;5051656;28;20541;-82
2022/01/04 05:32:21;;;;;;;;;;;8.00;99.90;;;;;;5035978;28;20093;-81
2022/01/04 05:34:47;;;;;;;33.00;9.57;;;7.90;99.90;;;;;;5037195;28;19916;-80
2022/01/04 05:37:12;;;;;;;36.47;10.53;;;8.20;99.90;;;;;;5032288;28;20032;-80
2022/01/04 05:39:38;;;;;;;32.20;8.93;;;8.00;99.90;;;;;;5066022;28;20293;-81
2022/01/04 05:42:04;;;;;;;29.60;10.63;;;7.90;99.90;;;;;;5032489;28;20036;-81
2022/01/04 05:44:30;;;;;;;38.65;11.23;;;8.00;99.90;;;;;;5043363;28;20510;-82
2022/01/04 05:46:56;;;;;;;31.27;9.80;;;7.90;99.90;;;;;;5034360;28;20119;-81
2022/01/04 05:49:22;;;;;;;36.33;10.80;;;8.00;99.90;;;;;;5048772;28;20127;-81
2022/01/04 05:51:47;;;;;;;31.10;11.27;;;8.00;99.90;;;;;;5024742;28;20468;-82
2022/01/04 05:54:13;;;;;;;29.38;9.70;;;7.90;99.90;;;;;;5016318;28;20047;-80
2022/01/04 05:56:39;;;;;;;29.70;10.07;;;7.90;99.90;;;;;;5069235;28;20491;-81
2022/01/04 05:59:05;;;;;;;34.57;10.30;;;7.90;99.90;;;;;;5044160;28;20480;-80
2022/01/04 06:01:30;;;;;;;35.35;10.88;;;8.10;99.90;;;;;;5064574;28;20332;-79
2022/01/04 06:03:56;;;;;;;31.27;11.32;;;7.90;99.90;;;;;;5043905;28;20181;-79
2022/01/04 06:06:23;;;;;;;33.33;10.13;;;8.00;99.90;;;;;;5064947;28;20072;-80
2022/01/04 06:08:49;;;;;;;31.00;9.80;;;7.90;99.90;;;;;;5060051;28;20039;-79
2022/01/04 06:11:31;;;;;;;38.33;10.63;;;7.90;99.90;;;;;;5062426;28;20062;-80
2022/01/04 06:16:41;;;;;;;36.13;10.05;;;7.90;99.90;;;;;;5046241;28;20048;-80
2022/01/04 06:19:07;;;;;;;33.38;9.23;;;7.90;99.90;;;;;;5046459;28;20036;-80
2022/01/04 06:21:33;;;;;;;31.50;8.90;;;8.80;99.90;;;;;;5065445;28;20036;-79
2022/01/04 06:23:58;;;;;;;28.17;8.63;;;7.90;99.90;;;;;;5052606;28;20329;-79
2022/01/04 06:26:25;;;;;;;33.70;8.83;;;8.00;99.90;;;;;;5067815;28;20280;-80
2022/01/04 06:28:50;;;;;;;33.00;9.02;;;8.00;99.90;;;;;;5064765;28;20275;-79
2022/01/04 06:31:16;;;;;;;29.92;8.32;;;7.90;99.90;;;;;;5047321;28;20036;-79
2022/01/04 06:33:43;;;;;;;27.90;8.40;;;7.90;99.90;;;;;;5051837;28;20036;-80
2022/01/04 06:36:09;;;;;;;27.25;8.43;;;7.90;99.90;;;;;;5066328;28;20043;-79
2022/01/04 06:38:34;;;;;;;35.28;9.30;;;8.00;99.90;;;;;;5068948;28;20036;-80
2022/01/04 06:41:02;;;;;;;35.97;9.40;;;7.90;99.90;;;;;;5063703;28;20377;-80
2022/01/04 06:43:28;;;;;;;35.30;9.45;;;8.20;99.90;;;;;;5051098;28;20797;-79
2022/01/04 06:45:54;;;;;;;33.20;8.80;;;7.90;99.90;;;;;;5068580;28;20095;-79
2022/01/04 06:48:20;;;;;;;41.53;9.00;;;7.90;99.90;;;;;;5033162;28;20281;-79
2022/01/04 06:50:45;;;;;;;26.60;7.85;;;8.00;99.90;;;;;;5066233;28;20279;-80
2022/01/04 06:53:11;;;;;;;30.23;7.13;;;8.00;99.90;;;;;;5066828;28;20040;-80
2022/01/04 06:55:37;;;;;;;32.15;7.18;;;8.00;99.90;;;;;;5049691;28;20115;-79
2022/01/04 06:58:02;;;;;;;30.55;7.70;;;8.10;99.90;;;;;;5066156;28;20111;-79
2022/01/04 07:00:28;;;;;;;31.13;8.23;;;7.90;99.90;;;;;;5066416;28;20036;-80
2022/01/04 07:02:54;;;;;;;21.90;7.63;;;7.90;99.90;;;;;;5064188;28;20433;-79
2022/01/04 07:05:20;;;;;;;28.13;8.90;;;7.90;99.90;;;;;;5033359;28;20037;-79
2022/01/04 07:07:45;;;;;;;24.08;8.55;;;7.90;99.90;;;;;;5049589;28;20643;-80
2022/01/04 07:10:11;;;;;;;18.58;7.95;;;7.90;99.90;;;;;;5065676;28;20036;-79
2022/01/04 07:12:37;;;;;;;29.17;7.95;;;7.80;99.90;;;;;;5049621;28;20437;-79
2022/01/04 07:15:03;;;;;;;23.33;8.25;;;7.90;99.90;;;;;;5034900;28;20097;-79
2022/01/04 07:17:28;;;;;;;22.60;7.72;;;7.80;99.90;;;;;;5035305;28;20494;-80
2022/01/04 07:19:54;;;;;;;26.48;8.40;;;7.90;99.90;;;;;;5066568;28;20044;-79
2022/01/04 07:22:20;;;;;;;27.27;7.88;;;7.80;99.90;;;;;;5060726;28;20040;-80
2022/01/04 07:24:46;;;;;;;20.13;7.25;;;7.80;99.90;;;;;;5064748;28;20032;-80
2022/01/04 07:27:11;;;;;;;17.25;6.97;;;7.80;99.90;;;;;;5051912;28;20036;-80
2022/01/04 07:29:37;;;;;;;26.00;7.70;;;7.80;99.90;;;;;;5065606;28;20458;-80
2022/01/04 07:32:03;;;;;;;20.48;6.78;;;7.70;99.90;;;;;;5064645;28;20089;-79
2022/01/04 07:34:32;;;;;;;20.85;6.50;;;7.80;99.90;;;;;;5066407;28;20040;-80
2022/01/04 07:36:58;;;;;;;17.17;6.22;;;7.80;99.90;;;;;;5035136;28;20120;-79
2022/01/04 07:39:23;;;;;;;16.00;6.20;;;7.70;99.90;;;;;;5062867;28;20131;-79
2022/01/04 07:41:49;;;;;;;21.83;6.80;;;7.70;99.90;;;;;;5046594;28;20062;-79
2022/01/04 07:44:15;;;;;;;33.33;7.10;;;7.70;99.90;;;;;;5048910;28;20170;-79
2022/01/04 07:46:41;;;;;;;16.02;4.32;;;7.90;99.90;;;;;;5034903;28;20105;-80
2022/01/04 07:49:06;;;;;;;13.65;4.30;;;7.70;99.90;;;;;;5053246;28;20089;-80
2022/01/04 07:51:32;;;;;;;15.75;4.90;;;7.70;99.90;;;;;;5064577;28;20066;-80
2022/01/04 07:53:58;;;;;;;21.73;5.35;;;8.50;99.90;;;;;;5068207;28;20028;-80
2022/01/04 07:56:23;;;;;;;15.60;5.13;;;7.70;99.90;;;;;;5065137;28;20091;-80
2022/01/04 07:58:49;;;;;;;19.03;5.67;;;7.80;99.90;;;;;;5029788;28;20036;-80
2022/01/04 08:01:15;;;;;;;18.25;4.65;;;7.70;99.90;;;;;;5029675;28;20279;-80
2022/01/04 08:03:41;;;;;;;16.90;4.80;;;7.70;99.90;;;;;;5048103;28;20047;-80
2022/01/04 08:06:07;;;;;;;19.95;4.78;;;7.80;99.90;;;;;;5045912;28;20032;-80
2022/01/04 08:08:33;;;;;;;13.73;3.58;;;7.70;99.90;;;;;;5068165;28;20810;-81
2022/01/04 08:10:58;;;;;;;14.77;3.20;;;7.60;99.90;;;;;;5031313;28;20451;-80
2022/01/04 08:13:29;;;;;;;9.27;3.00;;;7.60;99.90;;;;;;5049763;28;20054;-81
2022/01/04 08:15:55;;;;;;;12.07;3.35;;;7.60;99.90;;;;;;5061794;28;20049;-81
2022/01/04 08:18:20;;;;;;;13.98;4.00;;;7.60;99.90;;;;;;5064051;28;20462;-81
2022/01/04 08:20:47;;;;;;;11.10;4.20;;;7.60;99.90;;;;;;5031942;28;20072;-81
2022/01/04 08:23:12;;;;;;;16.67;4.53;;;7.60;99.90;;;;;;5045134;28;20348;-81
2022/01/04 08:25:38;;;;;;;15.03;3.90;;;7.60;99.90;;;;;;5015595;28;20597;-81
2022/01/04 08:28:04;;;;;;;15.38;4.32;;;7.60;99.90;;;;;;5047775;28;20282;-81
2022/01/04 08:30:33;;;;;;;15.30;3.70;;;7.60;99.90;;;;;;5065146;28;20543;-82
2022/01/04 08:32:58;;;;;;;13.73;3.95;;;8.40;99.90;;;;;;5047197;28;20036;-82
2022/01/04 08:35:24;;;;;;;12.90;3.40;;;7.60;99.90;;;;;;5028687;28;20034;-81
2022/01/04 08:37:50;;;;;;;9.40;3.55;;;7.50;99.90;;;;;;5028940;28;20036;-82
2022/01/04 08:40:16;;;;;;;15.02;3.53;;;7.60;99.90;;;;;;5030574;28;20444;-82
2022/01/04 08:42:41;;;;;;;15.00;4.00;;;7.50;99.90;;;;;;5063386;28;20043;-82
2022/01/04 08:45:08;;;;;;;14.88;3.17;;;7.50;99.90;;;;;;5063585;28;20032;-82
2022/01/04 08:47:34;;;;;;;10.52;3.22;;;7.50;99.90;;;;;;5047939;28;20033;-81
2022/01/04 08:50:00;;;;;;;16.30;3.38;;;7.50;99.90;;;;;;5028372;28;20109;-80
2022/01/04 08:52:27;;;;;;;13.35;3.75;;;8.20;99.90;;;;;;5047076;28;20051;-81
2022/01/04 08:54:53;;;;;;;12.40;3.30;;;7.40;99.90;;;;;;5064850;28;20162;-81
2022/01/04 08:57:18;;;;;;;11.65;3.65;;;7.40;99.90;;;;;;5061750;28;20492;-81
2022/01/04 08:59:46;;;;;;;14.53;3.80;;;7.70;99.90;;;;;;5064344;28;20041;-81
2022/01/04 09:02:12;;;;;;;13.18;2.42;;;7.40;99.90;;;;;;5031206;28;20290;-81
2022/01/04 09:04:38;;;;;;;7.90;1.90;;;7.30;99.90;;;;;;5047668;28;20043;-81
2022/01/04 09:07:04;;;;;;;6.13;2.10;;;7.30;99.90;;;;;;5063737;28;20040;-80
2022/01/04 09:09:30;;;;;;;9.43;2.15;;;7.20;99.90;;;;;;5065935;28;20714;-80
2022/01/04 09:11:56;;;;;;;8.73;1.75;;;7.10;99.90;;;;;;5063324;28;20037;-80
2022/01/04 09:14:41;;;;;;;4.72;1.40;;;7.00;99.90;;;;;;5046831;28;20040;-80
2022/01/04 09:19:52;;;;;;;5.43;1.13;;;6.80;99.90;;;;;;5064063;28;20146;-80
2022/01/04 09:22:18;;;;;;;7.10;1.70;;;6.80;99.90;;;;;;5061182;28;20123;-80
2022/01/04 09:24:43;;;;;;;7.28;1.50;;;6.80;99.90;;;;;;5029358;28;20029;-80
2022/01/04 09:27:10;;;;;;;9.18;1.50;;;6.70;99.90;;;;;;5030227;28;20039;-80
2022/01/04 09:29:35;;;;;;;;;;;6.70;99.90;;;;;;5063570;28;20093;-80
2022/01/04 09:32:05;;;;;;;6.38;1.10;;;6.70;99.90;;;;;;5055044;28;19920;-80
2022/01/04 09:34:31;;;;;;;7.45;1.33;;;6.70;99.90;;;;;;5058532;28;20040;-80
2022/01/04 09:36:57;;;;;;;6.85;1.20;;;7.20;99.90;;;;;;5063236;28;20041;-80
2022/01/04 09:39:24;;;;;;;4.80;0.98;;;6.70;99.90;;;;;;5046027;28;20484;-80
2022/01/04 09:41:52;;;;;;;4.65;0.93;;;6.90;99.90;;;;;;5048383;28;20036;-80
2022/01/04 09:44:18;;;;;;;5.28;1.00;;;6.70;99.90;;;;;;5062493;28;20165;-80
2022/01/04 09:46:43;;;;;;;8.07;1.00;;;6.70;99.90;;;;;;5030019;28;20508;-80
2022/01/04 09:49:11;;;;;;;9.93;1.15;;;6.70;99.90;;;;;;5062108;28;20439;-80
2022/01/04 09:51:39;;;;;;;8.13;1.30;;;6.70;99.90;;;;;;5044048;28;20048;-80
2022/01/04 09:54:05;;;;;;;6.47;1.30;;;6.70;99.90;;;;;;5061496;28;20051;-78
2022/01/04 09:56:31;;;;;;;6.15;1.15;;;6.60;99.90;;;;;;5062408;28;20146;-77
2022/01/04 09:58:57;;;;;;;4.10;0.98;;;6.60;99.90;;;;;;5062904;28;20121;-77
2022/01/04 10:01:32;;;;;;;4.80;0.82;;;6.50;99.90;;;;;;5061683;28;20036;-77
2022/01/04 10:03:58;;;;;;;11.57;1.17;;;6.50;99.90;;;;;;5061176;28;20036;-77
2022/01/04 10:06:25;;;;;;;6.30;0.77;;;6.50;99.90;;;;;;5062418;28;20098;-77
2022/01/04 10:08:53;;;;;;;10.27;0.95;;;6.50;99.90;;;;;;5065165;28;20058;-76
2022/01/04 10:11:31;;;;;;;7.97;1.20;;;6.40;99.90;;;;;;5062456;28;20097;-77
2022/01/04 10:13:59;;;;;;;2.22;0.90;;;6.40;99.90;;;;;;5043011;28;20086;-77
2022/01/04 10:16:25;;;;;;;2.55;0.70;;;6.30;99.90;;;;;;5063753;28;20089;-77
2022/01/04 10:18:51;;;;;;;2.42;0.82;;;6.20;99.90;;;;;;5061962;28;20441;-77
2022/01/04 10:21:17;;;;;;;3.10;0.93;;;6.10;99.90;;;;;;5043695;28;20040;-77
2022/01/04 10:23:46;;;;;;;7.10;0.80;;;6.00;99.90;;;;;;5045990;28;20034;-77
2022/01/04 10:26:12;;;;;;;3.00;0.82;;;6.00;99.90;;;;;;5040111;28;20059;-77
2022/01/04 10:28:42;;;;;;;6.95;1.08;;;6.00;99.90;;;;;;5060371;28;20120;-77
2022/01/04 10:31:11;;;;;;;3.15;0.90;;;6.00;99.90;;;;;;5062573;28;20041;-77
2022/01/04 10:33:37;;;;;;;4.30;0.70;;;6.50;99.90;;;;;;5062775;28;20108;-77
2022/01/04 10:36:11;;;;;;;6.68;0.95;;;6.80;99.90;;;;;;5029843;28;20040;-77
2022/01/04 10:38:42;;;;;;;5.38;1.23;;;5.90;99.90;;;;;;5042161;28;20504;-77
2022/01/04 10:41:26;;;;;;;7.13;0.80;;;5.80;99.90;;;;;;5064388;28;20048;-77
2022/01/04 10:43:59;;;;;;;4.53;0.90;;;5.80;99.90;;;;;;5045695;28;20441;-77
2022/01/04 10:46:38;;;;;;;5.07;0.70;;;6.60;99.90;;;;;;5043395;28;20768;-77
2022/01/04 10:49:21;;;;;;;1.42;0.55;;;5.80;99.90;;;;;;5041995;28;20170;-77
2022/01/04 10:52:06;;;;;;;2.72;0.90;;;5.80;99.90;;;;;;5058378;28;20053;-77
2022/01/04 10:54:32;;;;;;;6.38;1.05;;;5.80;99.90;;;;;;5044194;28;20036;-77
2022/01/04 10:57:09;;;;;;;3.75;0.70;;;5.90;99.90;;;;;;5062609;28;20086;-77
2022/01/04 10:59:35;;;;;;;;;;;5.90;99.90;;;;;;5045885;28;20040;-77
2022/01/04 11:02:01;;;;;;;4.68;0.70;;;5.90;99.90;;;;;;5062482;28;20295;-77
2022/01/04 11:04:27;;;;;;;3.25;0.52;;;5.90;99.90;;;;;;5062157;28;20541;-77
2022/01/04 11:07:01;;;;;;;1.10;0.40;;;5.90;99.90;;;;;;5067001;28;20052;-77
2022/01/04 11:09:27;;;;;;;1.25;0.63;;;5.80;99.90;;;;;;5064748;28;20044;-77
2022/01/04 11:11:53;;;;;;;1.90;0.77;;;5.80;99.90;;;;;;5050255;28;20123;-77
2022/01/04 11:14:19;;;;;;;1.77;0.65;;;5.70;99.90;;;;;;5065336;28;20032;-77
2022/01/04 11:16:45;;;;;;;4.95;0.80;;;5.70;99.90;;;;;;5063079;28;20088;-77
2022/01/04 11:19:10;;;;;;;5.27;0.70;;;5.80;99.90;;;;;;5048875;28;20497;-77
2022/01/04 11:21:42;;;;;;;2.05;0.60;;;5.60;99.90;;;;;;5027589;28;20284;-77
2022/01/04 11:24:16;;;;;;;4.03;1.00;;;5.70;99.90;;;;;;5047643;28;20041;-77
2022/01/04 11:26:44;;;;;;;7.18;0.90;;;6.00;99.90;;;;;;5063128;28;20028;-77
2022/01/04 11:29:11;;;;;;;3.38;0.70;;;5.60;99.90;;;;;;5048667;28;20040;-77
2022/01/04 11:31:57;;;;;;;4.05;0.75;;;5.70;99.90;;;;;;5049122;28;20047;-77
2022/01/04 11:34:54;;;;;;;5.35;1.05;;;5.40;99.90;;;;;;5062780;28;20051;-77
2022/01/04 11:37:22;;;;;;;1.75;0.63;;;5.50;99.90;;;;;;5063214;28;20036;-77
2022/01/04 11:39:50;;;;;;;6.32;1.00;;;5.60;99.90;;;;;;5033137;28;20495;-77
2022/01/04 11:42:38;;;;;;;2.72;0.70;;;5.50;99.90;;;;;;5048322;28;20119;-77
2022/01/04 11:45:07;;;;;;;6.03;0.77;;;6.00;99.90;;;;;;5064851;28;20028;-77
2022/01/04 11:47:37;;;;;;;3.78;0.60;;;5.60;99.90;;;;;;5043742;28;20040;-77
2022/01/04 11:50:13;;;;;;;2.92;0.88;;;5.60;99.90;;;;;;5065690;28;20060;-77
2022/01/04 11:52:39;;;;;;;4.30;1.13;;;5.60;99.90;;;;;;5048712;28;20048;-77
2022/01/04 11:55:26;;;;;;;3.03;0.70;;;5.60;99.90;;;;;;5065259;28;20399;-77
2022/01/04 11:57:54;;;;;;;5.07;0.80;;;5.60;99.90;;;;;;5061692;28;20040;-79
2022/01/04 12:00:24;;;;;;;4.40;0.80;;;5.70;99.90;;;;;;5062543;28;20230;-79
2022/01/04 12:03:18;;;;;;;3.03;0.68;;;5.80;99.90;;;;;;5065581;28;20523;-79
2022/01/04 12:05:56;;;;;;;4.85;0.82;;;5.80;99.90;;;;;;5063270;28;20062;-79
2022/01/04 12:08:28;;;;;;;5.53;0.90;;;5.90;99.90;;;;;;5063461;28;20106;-80
2022/01/04 12:10:56;;;;;;;4.22;1.02;;;5.90;99.90;;;;;;5050870;28;20044;-79
2022/01/04 12:13:46;;;;;;;6.38;0.90;;;6.00;99.90;;;;;;5064560;28;21273;-79
2022/01/04 12:16:12;;;;;;;4.90;1.00;;;6.00;99.90;;;;;;5064866;28;20036;-79
2022/01/04 12:18:38;;;;;;;8.15;1.05;;;6.00;99.90;;;;;;5066459;28;20502;-79
2022/01/04 12:21:17;;;;;;;6.57;1.20;;;6.10;99.90;;;;;;5066334;28;20040;-78
2022/01/04 12:23:44;;;;;;;7.38;1.00;;;6.00;99.90;;;;;;5047226;28;20277;-79
2022/01/04 12:26:13;;;;;;;;;;;6.10;99.90;;;;;;5048302;28;20488;-79
2022/01/04 12:28:55;;;;;;;6.10;0.88;;;7.10;99.90;;;;;;5046994;28;19998;-79
2022/01/04 12:31:23;;;;;;;4.18;1.13;;;6.10;99.90;;;;;;5048848;28;20114;-79
2022/01/04 12:33:52;;;;;;;7.22;1.42;;;6.20;99.90;;;;;;5044576;28;20093;-79
2022/01/04 12:36:36;;;;;;;7.32;1.60;;;6.00;99.90;;;;;;5048503;28;20043;-79
2022/01/04 12:39:03;;;;;;;6.43;1.10;;;6.00;99.90;;;;;;5046325;28;20119;-79
2022/01/04 12:41:32;;;;;;;6.13;0.90;;;6.00;99.90;;;;;;5063619;28;20055;-79
2022/01/04 12:43:59;;;;;;;6.82;1.10;;;5.90;99.90;;;;;;5060917;28;20040;-79
2022/01/04 12:46:33;;;;;;;5.25;1.08;;;5.90;99.90;;;;;;5059326;28;20123;-79
2022/01/04 12:49:13;;;;;;;11.82;1.15;;;5.90;99.90;;;;;;5063298;28;20044;-79
2022/01/04 12:51:54;;;;;;;5.03;1.17;;;5.80;99.90;;;;;;5060939;28;20048;-79
2022/01/04 12:54:28;;;;;;;5.38;0.82;;;5.80;99.90;;;;;;5064123;28;20480;-79
2022/01/04 12:57:02;;;;;;;6.03;0.90;;;5.90;99.90;;;;;;5064005;28;20567;-79
2022/01/04 12:59:40;;;;;;;3.33;0.95;;;5.90;99.90;;;;;;5049192;28;20037;-79
2022/01/04 13:02:21;;;;;;;8.05;0.70;;;5.90;99.90;;;;;;5046447;28;20050;-79